createdAt,value
2018-08-10T00:01:35.632Z,18.22
2018-08-10T00:04:04.777Z,18.19
2018-08-10T00:06:32.848Z,18.17
2018-08-10T00:09:00.909Z,18.13
2018-08-10T00:11:28.935Z,18.07
2018-08-10T00:13:56.949Z,17.99
2018-08-10T00:16:24.961Z,17.85
2018-08-10T00:18:53.057Z,17.73
2018-08-10T00:21:21.273Z,17.65
2018-08-10T00:23:49.296Z,17.62
2018-08-10T00:26:17.404Z,17.60
2018-08-10T00:28:45.428Z,17.60
2018-08-10T00:31:13.439Z,17.57
2018-08-10T00:33:41.916Z,17.58
2018-08-10T00:36:09.932Z,17.57
2018-08-10T00:38:38.318Z,17.55
2018-08-10T00:41:06.364Z,17.53
2018-08-10T00:43:34.384Z,17.54
2018-08-10T00:46:02.401Z,17.54
2018-08-10T00:48:30.413Z,17.52
2018-08-10T00:50:58.452Z,17.47
2018-08-10T00:53:26.608Z,17.43
2018-08-10T00:55:54.620Z,17.40
2018-08-10T00:58:22.776Z,17.40
2018-08-10T01:00:50.788Z,17.38
2018-08-10T01:03:18.871Z,17.42
2018-08-10T01:05:46.880Z,17.43
2018-08-10T01:08:14.896Z,17.41
2018-08-10T01:10:42.915Z,17.34
2018-08-10T01:13:10.949Z,17.32
2018-08-10T01:15:38.961Z,17.30
2018-08-10T01:18:06.981Z,17.26
2018-08-10T01:20:35.004Z,17.24
2018-08-10T01:23:05.864Z,17.18
2018-08-10T01:25:33.880Z,17.13
2018-08-10T01:28:03.153Z,17.09
2018-08-10T01:30:34.997Z,17.11
2018-08-10T01:33:03.260Z,17.07
2018-08-10T01:35:31.665Z,16.95
2018-08-10T01:38:00.734Z,16.91
2018-08-10T01:40:28.785Z,16.88
2018-08-10T01:42:56.788Z,16.83
2018-08-10T01:45:24.817Z,16.86
2018-08-10T01:47:52.985Z,16.87
2018-08-10T01:50:21.025Z,16.85
2018-08-10T01:52:49.185Z,16.84
2018-08-10T01:55:17.189Z,16.84
2018-08-10T01:57:45.197Z,16.85
2018-08-10T02:00:13.213Z,16.84
2018-08-10T02:02:41.221Z,16.86
2018-08-10T02:05:10.568Z,16.81
2018-08-10T02:07:39.312Z,16.78
2018-08-10T02:10:10.436Z,16.75
2018-08-10T02:12:39.050Z,16.78
2018-08-10T02:15:10.105Z,16.81
2018-08-10T02:17:38.504Z,16.78
2018-08-10T02:20:07.955Z,16.80
2018-08-10T02:22:36.069Z,16.84
2018-08-10T02:25:05.989Z,16.86
2018-08-10T02:27:34.001Z,16.86
2018-08-10T02:30:02.035Z,16.85
2018-08-10T02:32:30.045Z,16.81
2018-08-10T02:34:58.058Z,16.78
2018-08-10T02:37:26.065Z,16.78
2018-08-10T02:39:54.073Z,16.73
2018-08-10T02:42:22.105Z,16.74
2018-08-10T02:44:50.128Z,16.76
2018-08-10T02:47:22.693Z,16.78
2018-08-10T02:49:50.828Z,16.62
2018-08-10T02:52:18.857Z,16.59
2018-08-10T02:54:46.876Z,16.56
2018-08-10T02:57:15.106Z,16.58
2018-08-10T02:59:43.704Z,16.58
2018-08-10T03:02:11.724Z,16.61
2018-08-10T03:04:39.784Z,16.65
2018-08-10T03:07:07.824Z,16.70
2018-08-10T03:09:35.849Z,16.68
2018-08-10T03:12:04.620Z,16.68
2018-08-10T03:14:32.646Z,16.67
2018-08-10T03:17:00.665Z,16.60
2018-08-10T03:19:28.680Z,16.59
2018-08-10T03:21:56.710Z,16.59
2018-08-10T03:24:24.722Z,16.58
2018-08-10T03:26:52.748Z,16.58
2018-08-10T03:29:20.772Z,16.55
2018-08-10T03:31:48.802Z,16.54
2018-08-10T03:34:16.900Z,16.50
2018-08-10T03:36:44.924Z,16.47
2018-08-10T03:39:13.398Z,16.41
2018-08-10T03:41:41.916Z,16.39
2018-08-10T03:44:10.110Z,16.34
2018-08-10T03:46:38.131Z,16.30
2018-08-10T03:49:06.193Z,16.28
2018-08-10T03:51:34.600Z,16.24
2018-08-10T03:54:02.732Z,16.17
2018-08-10T03:56:30.797Z,16.10
2018-08-10T03:58:58.804Z,16.06
2018-08-10T04:01:26.836Z,16.03
2018-08-10T04:03:54.957Z,16.03
2018-08-10T04:06:22.971Z,16.09
2018-08-10T04:08:51.005Z,16.11
2018-08-10T04:11:19.030Z,16.09
2018-08-10T04:13:47.065Z,16.12
2018-08-10T04:16:15.133Z,16.09
2018-08-10T04:18:43.161Z,16.09
2018-08-10T04:21:11.186Z,16.04
2018-08-10T04:23:39.221Z,16.04
2018-08-10T04:26:07.246Z,16.00
2018-08-10T04:28:35.268Z,16.00
2018-08-10T04:31:03.300Z,15.95
2018-08-10T04:33:31.316Z,15.92
2018-08-10T04:35:59.320Z,15.92
2018-08-10T04:38:27.385Z,15.89
2018-08-10T04:40:55.392Z,15.85
2018-08-10T04:43:23.408Z,15.83
2018-08-10T04:45:51.436Z,15.79
2018-08-10T04:48:19.510Z,15.71
2018-08-10T04:50:47.476Z,15.73
2018-08-10T04:53:15.484Z,15.73
2018-08-10T04:55:43.516Z,15.77
2018-08-10T04:58:11.683Z,15.76
2018-08-10T05:00:39.696Z,15.76
2018-08-10T05:03:07.731Z,15.75
2018-08-10T05:05:35.764Z,15.76
2018-08-10T05:08:03.776Z,15.78
2018-08-10T05:10:31.802Z,15.77
2018-08-10T05:12:59.816Z,15.76
2018-08-10T05:15:27.808Z,15.72
2018-08-10T05:17:55.824Z,15.76
2018-08-10T05:20:23.860Z,15.74
2018-08-10T05:22:51.876Z,15.80
2018-08-10T05:25:19.892Z,15.83
2018-08-10T05:27:47.904Z,15.82
2018-08-10T05:30:16.074Z,15.86
2018-08-10T05:32:44.081Z,15.86
2018-08-10T05:35:12.101Z,15.84
2018-08-10T05:37:40.241Z,15.87
2018-08-10T05:40:09.296Z,15.90
2018-08-10T05:42:37.312Z,15.89
2018-08-10T05:45:38.041Z,15.97
2018-08-10T05:48:06.061Z,15.97
2018-08-10T05:50:34.059Z,15.97
2018-08-10T05:53:02.232Z,15.97
2018-08-10T05:55:30.281Z,15.99
2018-08-10T05:57:58.296Z,16.03
2018-08-10T06:00:26.308Z,16.05
2018-08-10T06:02:54.327Z,16.09
2018-08-10T06:05:22.336Z,16.12
2018-08-10T06:07:50.359Z,16.14
2018-08-10T06:10:18.372Z,16.23
2018-08-10T06:12:46.388Z,16.32
2018-08-10T06:15:14.400Z,16.42
2018-08-10T06:17:42.409Z,16.49
2018-08-10T06:20:11.285Z,16.58
2018-08-10T06:22:39.428Z,16.67
2018-08-10T06:25:07.832Z,16.78
2018-08-10T06:27:35.789Z,16.85
2018-08-10T06:30:05.225Z,16.94
2018-08-10T06:32:33.246Z,17.01
2018-08-10T06:35:01.237Z,17.13
2018-08-10T06:37:29.257Z,17.26
2018-08-10T06:39:57.275Z,17.32
2018-08-10T06:42:25.277Z,17.37
2018-08-10T06:44:53.325Z,17.49
2018-08-10T06:47:21.277Z,17.61
2018-08-10T06:49:49.292Z,17.71
2018-08-10T06:52:17.344Z,17.88
2018-08-10T06:54:45.352Z,18.01
2018-08-10T06:57:13.464Z,18.13
2018-08-10T06:59:41.464Z,18.27
2018-08-10T07:02:09.487Z,18.43
2018-08-10T07:04:37.496Z,18.66
2018-08-10T07:07:05.642Z,18.81
2018-08-10T07:09:33.672Z,18.97
2018-08-10T07:12:01.681Z,19.18
2018-08-10T07:14:29.729Z,19.47
2018-08-10T07:16:57.707Z,19.64
2018-08-10T07:19:25.740Z,19.82
2018-08-10T07:21:53.761Z,19.94
2018-08-10T07:24:21.776Z,20.17
2018-08-10T07:26:49.800Z,20.12
2018-08-10T07:29:17.833Z,20.15
2018-08-10T07:31:45.856Z,20.34
2018-08-10T07:34:13.884Z,20.44
2018-08-10T07:36:41.901Z,20.62
2018-08-10T07:39:11.660Z,20.87
2018-08-10T07:41:39.684Z,21.09
2018-08-10T07:44:07.856Z,21.13
2018-08-10T07:46:36.132Z,21.12
2018-08-10T07:49:05.129Z,21.25
2018-08-10T07:51:33.155Z,21.49
2018-08-10T07:54:01.238Z,21.59
2018-08-10T07:56:29.253Z,21.72
2018-08-10T07:58:57.443Z,21.70
2018-08-10T08:01:25.773Z,21.64
2018-08-10T08:03:53.771Z,21.72
2018-08-10T08:06:21.775Z,21.80
2018-08-10T08:08:49.800Z,21.95
2018-08-10T08:11:18.340Z,22.08
2018-08-10T08:13:46.546Z,22.23
2018-08-10T08:16:14.809Z,22.39
2018-08-10T08:18:42.832Z,22.45
2018-08-10T08:21:12.073Z,22.53
2018-08-10T08:23:40.121Z,22.50
2018-08-10T08:26:08.629Z,22.57
2018-08-10T08:28:36.957Z,22.62
2018-08-10T08:31:05.868Z,22.68
2018-08-10T08:33:38.348Z,22.76
2018-08-10T08:36:06.369Z,22.70
2018-08-10T08:38:45.992Z,22.85
2018-08-10T08:41:14.036Z,22.96
2018-08-10T08:44:56.291Z,23.01
2018-08-10T08:47:24.443Z,23.19
2018-08-10T08:49:52.501Z,23.20
2018-08-10T08:52:20.565Z,23.32
2018-08-10T08:55:54.041Z,23.44
2018-08-10T08:58:22.512Z,23.15
2018-08-10T09:00:50.549Z,23.25
2018-08-10T09:03:30.456Z,23.36
2018-08-10T09:05:59.028Z,23.45
2018-08-10T09:08:27.170Z,23.47
2018-08-10T09:10:56.809Z,23.57
2018-08-10T09:13:25.391Z,23.57
2018-08-10T09:15:54.581Z,23.56
2018-08-10T09:18:22.672Z,23.62
2018-08-10T09:20:50.934Z,23.81
2018-08-10T09:23:18.972Z,24.09
2018-08-10T09:25:47.211Z,24.27
2018-08-10T09:28:15.265Z,24.17
2018-08-10T09:30:43.291Z,24.37
2018-08-10T09:33:11.428Z,24.15
2018-08-10T09:35:39.460Z,24.06
2018-08-10T09:38:07.594Z,24.24
2018-08-10T09:40:35.604Z,24.40
2018-08-10T09:43:03.632Z,24.57
2018-08-10T09:45:31.664Z,24.49
2018-08-10T09:47:59.860Z,24.72
2018-08-10T09:50:27.884Z,24.67
2018-08-10T09:53:00.213Z,24.77
2018-08-10T09:55:37.541Z,24.77
2018-08-10T09:58:10.129Z,24.82
2018-08-10T10:00:43.594Z,24.59
2018-08-10T10:03:17.484Z,24.41
2018-08-10T10:05:46.000Z,24.44
2018-08-10T10:08:14.492Z,24.51
2018-08-10T10:10:42.598Z,24.48
2018-08-10T10:13:10.680Z,24.70
2018-08-10T10:15:38.705Z,24.72
2018-08-10T10:18:08.446Z,24.66
2018-08-10T10:20:36.490Z,24.33
2018-08-10T10:23:05.376Z,24.29
2018-08-10T10:25:33.477Z,24.26
2018-08-10T10:28:01.569Z,24.35
2018-08-10T10:30:29.608Z,24.17
2018-08-10T10:32:57.632Z,23.92
2018-08-10T10:35:25.668Z,23.74
2018-08-10T10:37:53.841Z,23.93
2018-08-10T10:40:21.866Z,24.16
2018-08-10T10:42:50.008Z,24.44
2018-08-10T10:45:18.048Z,24.61
2018-08-10T10:47:47.120Z,24.83
2018-08-10T10:50:15.753Z,25.08
2018-08-10T10:52:44.076Z,25.05
2018-08-10T10:55:12.448Z,25.20
2018-08-10T10:57:40.944Z,25.57
2018-08-10T11:00:12.937Z,25.81
2018-08-10T11:02:40.948Z,25.99
2018-08-10T11:05:09.600Z,26.16
2018-08-10T11:07:38.026Z,26.22
2018-08-10T11:10:08.249Z,26.21
2018-08-10T11:12:36.628Z,26.35
2018-08-10T11:15:05.096Z,26.36
2018-08-10T11:17:33.457Z,25.98
2018-08-10T11:20:01.473Z,25.76
2018-08-10T11:22:29.501Z,25.71
2018-08-10T11:24:57.626Z,25.61
2018-08-10T11:27:25.698Z,25.57
2018-08-10T11:29:53.728Z,25.73
2018-08-10T11:32:21.749Z,25.74
2018-08-10T11:34:49.762Z,25.81
2018-08-10T11:37:24.522Z,25.86
2018-08-10T11:39:52.544Z,25.92
2018-08-10T11:42:20.580Z,25.92
2018-08-10T11:44:48.654Z,26.15
2018-08-10T11:47:17.031Z,26.22
2018-08-10T11:49:45.044Z,26.15
2018-08-10T11:52:13.060Z,26.13
2018-08-10T11:54:41.099Z,26.13
2018-08-10T11:57:09.112Z,25.89
2018-08-10T11:59:37.390Z,25.75
2018-08-10T12:02:06.788Z,25.52
2018-08-10T12:04:35.090Z,25.38
2018-08-10T12:07:03.141Z,25.14
2018-08-10T12:09:31.201Z,24.99
2018-08-10T12:11:59.212Z,24.79
2018-08-10T12:14:27.342Z,24.52
2018-08-10T12:16:55.421Z,24.37
2018-08-10T12:19:23.593Z,24.41
2018-08-10T12:21:51.862Z,24.37
2018-08-10T12:24:19.938Z,24.43
2018-08-10T12:26:47.980Z,24.35
2018-08-10T12:29:15.984Z,24.55
2018-08-10T12:31:44.000Z,24.85
2018-08-10T12:34:12.225Z,25.15
2018-08-10T12:36:40.259Z,25.43
2018-08-10T12:39:11.337Z,25.54
2018-08-10T12:41:39.784Z,25.60
2018-08-10T12:44:07.832Z,25.62
2018-08-10T12:46:35.893Z,25.68
2018-08-10T12:49:04.952Z,25.79
2018-08-10T12:51:32.970Z,25.82
2018-08-10T12:54:01.105Z,25.76
2018-08-10T12:56:29.116Z,25.70
2018-08-10T12:58:57.235Z,25.50
2018-08-10T13:01:25.596Z,25.39
2018-08-10T13:03:53.656Z,25.68
2018-08-10T13:06:21.754Z,25.61
2018-08-10T13:08:49.940Z,25.51
2018-08-10T13:11:18.194Z,25.43
2018-08-10T13:13:46.213Z,25.53
2018-08-10T13:16:14.373Z,25.66
2018-08-10T13:18:42.395Z,25.67
2018-08-10T13:21:10.421Z,25.82
2018-08-10T13:23:38.440Z,25.72
2018-08-10T13:26:07.012Z,25.37
2018-08-10T13:28:35.353Z,25.08
2018-08-10T13:31:03.560Z,24.85
2018-08-10T13:33:31.736Z,24.60
2018-08-10T13:35:59.752Z,24.64
2018-08-10T13:38:27.781Z,24.66
2018-08-10T13:40:56.331Z,24.73
2018-08-10T13:43:24.281Z,24.86
2018-08-10T13:45:52.301Z,25.10
2018-08-10T13:48:20.500Z,25.12
2018-08-10T13:50:48.577Z,25.12
2018-08-10T13:53:18.472Z,25.07
2018-08-10T13:55:46.552Z,25.15
2018-08-10T13:58:14.733Z,25.33
2018-08-10T14:00:42.996Z,25.37
2018-08-10T14:03:11.008Z,25.48
2018-08-10T14:05:39.044Z,25.53
2018-08-10T14:08:07.233Z,25.51
2018-08-10T14:10:35.256Z,25.48
2018-08-10T14:13:03.288Z,25.67
2018-08-10T14:15:31.289Z,25.74
2018-08-10T14:17:59.515Z,25.78
2018-08-10T14:20:27.540Z,25.70
2018-08-10T14:22:55.549Z,25.52
2018-08-10T14:25:23.822Z,25.45
2018-08-10T14:27:52.126Z,25.23
2018-08-10T14:30:20.120Z,25.02
2018-08-10T14:32:48.238Z,24.94
2018-08-10T14:35:16.599Z,24.70
2018-08-10T14:37:44.791Z,24.47
2018-08-10T14:40:13.514Z,24.39
2018-08-10T14:42:41.605Z,24.32
2018-08-10T14:45:12.800Z,24.27
2018-08-10T14:47:40.971Z,24.22
2018-08-10T14:50:11.052Z,24.15
2018-08-10T14:52:39.265Z,23.98
2018-08-10T14:55:09.117Z,23.89
2018-08-10T14:57:37.687Z,23.90
2018-08-10T15:00:09.785Z,23.81
2018-08-10T15:02:38.060Z,23.75
2018-08-10T15:05:06.692Z,23.85
2018-08-10T15:07:34.713Z,23.95
2018-08-10T15:10:02.841Z,24.17
2018-08-10T15:12:31.065Z,24.35
2018-08-10T15:14:58.960Z,24.43
2018-08-10T15:17:27.036Z,24.41
2018-08-10T15:19:55.052Z,24.30
2018-08-10T15:22:23.069Z,24.26
2018-08-10T15:24:51.263Z,24.29
2018-08-10T15:27:19.266Z,24.27
2018-08-10T15:29:47.429Z,24.27
2018-08-10T15:32:15.468Z,24.15
2018-08-10T15:34:43.497Z,24.09
2018-08-10T15:37:11.608Z,24.00
2018-08-10T15:39:39.778Z,23.98
2018-08-10T15:42:08.349Z,24.01
2018-08-10T15:44:36.365Z,23.95
2018-08-10T15:47:05.444Z,23.90
2018-08-10T15:49:33.496Z,23.88
2018-08-10T15:52:01.560Z,23.91
2018-08-10T15:54:29.574Z,23.86
2018-08-10T15:56:57.708Z,23.84
2018-08-10T15:59:25.774Z,23.84
2018-08-10T16:01:53.800Z,23.87
2018-08-10T16:04:21.817Z,23.89
2018-08-10T16:06:49.844Z,23.91
2018-08-10T16:09:17.882Z,23.87
2018-08-10T16:11:45.876Z,23.82
2018-08-10T16:14:13.900Z,23.79
2018-08-10T16:16:41.909Z,23.69
2018-08-10T16:21:28.905Z,23.51
2018-08-10T16:23:57.286Z,23.48
2018-08-10T16:26:25.317Z,23.40
2018-08-10T16:28:53.361Z,23.41
2018-08-10T16:31:21.591Z,23.45
2018-08-10T16:33:50.353Z,23.42
2018-08-10T16:36:18.397Z,23.43
2018-08-10T16:38:46.673Z,23.42
2018-08-10T16:41:14.976Z,23.46
2018-08-10T16:43:43.074Z,23.45
2018-08-10T16:46:11.153Z,23.55
2018-08-10T16:48:39.281Z,23.63
2018-08-10T16:51:07.414Z,23.69
2018-08-10T16:53:35.465Z,23.68
2018-08-10T16:56:04.588Z,23.61
2018-08-10T16:58:32.618Z,23.55
2018-08-10T17:01:00.680Z,23.57
2018-08-10T17:03:28.881Z,23.56
2018-08-10T17:05:56.944Z,23.58
2018-08-10T17:08:24.960Z,23.70
2018-08-10T17:10:52.990Z,23.70
2018-08-10T17:13:21.020Z,23.58
2018-08-10T17:15:49.042Z,23.54
2018-08-10T17:18:17.072Z,23.51
2018-08-10T17:20:45.101Z,23.42
2018-08-10T17:23:13.136Z,23.36
2018-08-10T17:25:41.152Z,23.29
2018-08-10T17:28:09.180Z,23.21
2018-08-10T17:30:37.416Z,23.20
2018-08-10T17:33:05.836Z,23.18
2018-08-10T17:35:33.856Z,23.17
2018-08-10T17:38:01.896Z,23.07
2018-08-10T17:40:30.301Z,23.05
2018-08-10T17:42:58.329Z,23.04
2018-08-10T17:45:26.369Z,23.02
2018-08-10T17:47:54.411Z,22.94
2018-08-10T17:50:22.524Z,22.90
2018-08-10T17:52:52.887Z,22.97
2018-08-10T17:55:21.289Z,22.90
2018-08-10T17:57:49.586Z,22.86
2018-08-10T18:00:22.196Z,22.85
2018-08-10T18:02:50.967Z,22.87
2018-08-10T18:05:19.303Z,22.84
2018-08-10T18:07:47.737Z,22.82
2018-08-10T18:10:16.385Z,22.73
2018-08-10T18:12:45.041Z,22.68
2018-08-10T18:15:14.378Z,22.63
2018-08-10T18:17:42.671Z,22.57
2018-08-10T18:20:13.353Z,22.49
2018-08-10T18:22:42.000Z,22.49
2018-08-10T18:25:11.373Z,22.44
2018-08-10T18:27:40.271Z,22.35
2018-08-10T18:30:13.325Z,22.35
2018-08-10T18:32:41.638Z,22.35
2018-08-10T18:35:10.178Z,22.34
2018-08-10T18:37:39.281Z,22.29
2018-08-10T18:40:08.124Z,22.28
2018-08-10T18:42:36.968Z,22.26
2018-08-10T18:45:05.948Z,22.22
2018-08-10T18:47:33.983Z,22.16
2018-08-10T18:50:02.129Z,22.11
2018-08-10T18:52:30.200Z,22.08
2018-08-10T18:54:58.273Z,21.97
2018-08-10T18:57:26.350Z,21.89
2018-08-10T18:59:54.404Z,21.84
2018-08-10T19:02:22.488Z,21.74
2018-08-10T19:04:50.482Z,21.65
2018-08-10T19:07:18.720Z,21.61
2018-08-10T19:09:47.294Z,21.55
2018-08-10T19:12:15.453Z,21.47
2018-08-10T19:14:43.379Z,21.46
2018-08-10T19:17:11.431Z,21.46
2018-08-10T19:19:39.888Z,21.46
2018-08-10T19:22:07.940Z,21.42
2018-08-10T19:24:35.962Z,21.36
2018-08-10T19:27:04.990Z,21.34
2018-08-10T19:29:33.024Z,21.32
2018-08-10T19:32:01.057Z,21.32
2018-08-10T19:34:29.549Z,21.33
2018-08-10T19:36:57.723Z,21.34
2018-08-10T19:39:26.012Z,21.33
2018-08-10T19:41:54.040Z,21.31
2018-08-10T19:44:22.173Z,21.27
2018-08-10T19:46:50.241Z,21.27
2018-08-10T19:49:18.277Z,21.25
2018-08-10T19:51:46.645Z,21.24
2018-08-10T19:54:14.677Z,21.24
2018-08-10T19:56:42.699Z,21.25
2018-08-10T19:59:10.769Z,21.23
2018-08-10T20:01:38.812Z,21.23
2018-08-10T20:04:06.855Z,21.21
2018-08-10T20:06:34.904Z,21.18
2018-08-10T20:09:02.957Z,21.20
2018-08-10T20:11:30.976Z,21.18
2018-08-10T20:13:59.040Z,21.20
2018-08-10T20:16:27.237Z,21.23
2018-08-10T20:18:55.446Z,21.20
2018-08-10T20:21:23.473Z,21.25
2018-08-10T20:23:51.499Z,21.26
2018-08-10T20:26:19.518Z,21.22
2018-08-10T20:28:47.589Z,21.21
2018-08-10T20:31:15.798Z,21.21
2018-08-10T20:33:43.824Z,21.18
2018-08-10T20:36:11.856Z,21.18
2018-08-10T20:38:39.893Z,21.20
2018-08-10T20:41:07.934Z,21.19
2018-08-10T20:43:35.969Z,21.18
2018-08-10T20:46:05.044Z,21.20
2018-08-10T20:48:33.077Z,21.18
2018-08-10T20:51:01.089Z,21.16
2018-08-10T20:53:29.108Z,21.18
2018-08-10T20:55:57.172Z,21.18
2018-08-10T20:58:25.176Z,21.20
2018-08-10T21:00:53.200Z,21.19
2018-08-10T21:03:21.217Z,21.20
2018-08-10T21:05:49.243Z,21.19
2018-08-10T21:08:17.314Z,21.20
2018-08-10T21:10:45.296Z,21.18
2018-08-10T21:13:13.322Z,21.18
2018-08-10T21:15:41.338Z,21.18
2018-08-10T21:18:09.377Z,21.16
2018-08-10T21:20:37.393Z,21.17
2018-08-10T21:23:05.457Z,21.19
2018-08-10T21:25:33.657Z,21.18
2018-08-10T21:28:01.751Z,21.18
2018-08-10T21:30:29.809Z,21.20
2018-08-10T21:32:57.841Z,21.20
2018-08-10T21:35:25.963Z,21.19
2018-08-10T21:37:54.053Z,21.19
2018-08-10T21:40:22.105Z,21.22
2018-08-10T21:42:50.474Z,21.21
2018-08-10T21:45:18.481Z,21.19
2018-08-10T21:47:46.513Z,21.14
2018-08-10T21:50:15.184Z,21.10
2018-08-10T21:52:43.955Z,21.12
2018-08-10T21:55:12.670Z,21.11
2018-08-10T21:57:40.915Z,21.11
2018-08-10T22:01:13.059Z,21.09
2018-08-10T22:03:47.706Z,21.01
2018-08-10T22:06:16.210Z,20.94
2018-08-10T22:08:44.232Z,20.88
2018-08-10T22:11:12.366Z,20.82
2018-08-10T22:13:45.702Z,20.80
2018-08-10T22:16:19.124Z,20.80
2018-08-10T22:18:52.597Z,20.81
2018-08-10T22:21:20.648Z,20.77
2018-08-10T22:23:48.673Z,20.78
2018-08-10T22:26:16.756Z,20.79
2018-08-10T22:28:44.766Z,20.78
2018-08-10T22:31:12.809Z,20.79
2018-08-10T22:33:40.870Z,20.82
2018-08-10T22:36:08.924Z,20.82
2018-08-10T22:38:37.426Z,20.83
2018-08-10T22:41:05.481Z,20.85
2018-08-10T22:43:33.593Z,20.86
2018-08-10T22:46:01.632Z,20.84
2018-08-10T22:48:29.742Z,20.83
2018-08-10T22:50:57.798Z,20.86
2018-08-10T22:53:25.829Z,20.86
2018-08-10T22:55:53.924Z,20.84
2018-08-10T22:58:21.951Z,20.82
2018-08-10T23:00:49.996Z,20.73
2018-08-10T23:03:18.047Z,20.68
2018-08-10T23:05:46.058Z,20.60
2018-08-10T23:08:14.092Z,20.58
2018-08-10T23:10:42.332Z,20.54
2018-08-10T23:13:10.372Z,20.46
2018-08-10T23:15:38.405Z,20.45
2018-08-10T23:18:07.165Z,20.39
2018-08-10T23:20:35.195Z,20.36
2018-08-10T23:23:03.229Z,20.26
2018-08-10T23:25:31.328Z,20.17
2018-08-10T23:27:59.365Z,20.09
2018-08-10T23:30:27.583Z,20.07
2018-08-10T23:32:55.525Z,20.08
2018-08-10T23:35:23.678Z,19.98
2018-08-10T23:37:51.725Z,19.71
2018-08-10T23:40:19.753Z,19.38
2018-08-10T23:42:47.775Z,19.07
2018-08-10T23:45:16.279Z,18.88
2018-08-10T23:47:44.824Z,18.63
2018-08-10T23:50:14.430Z,18.51
2018-08-10T23:52:42.924Z,18.43
2018-08-10T23:55:11.600Z,18.35
2018-08-10T23:57:40.582Z,18.18
